sensor_id;sensor_type;location;lat;lon;timestamp;temperature;humidity
76897;SHT30;65856;52.178;21.176;2024-03-08T00:00:40;-0.25;68.54
76897;SHT30;65856;52.178;21.176;2024-03-08T00:03:07;-0.26;68.50
76897;SHT30;65856;52.178;21.176;2024-03-08T00:05:35;-0.27;68.43
76897;SHT30;65856;52.178;21.176;2024-03-08T00:08:03;-0.25;68.34
76897;SHT30;65856;52.178;21.176;2024-03-08T00:10:30;-0.26;68.36
76897;SHT30;65856;52.178;21.176;2024-03-08T00:12:55;-0.29;68.64
76897;SHT30;65856;52.178;21.176;2024-03-08T00:15:22;-0.33;68.80
76897;SHT30;65856;52.178;21.176;2024-03-08T00:17:48;-0.33;68.72
76897;SHT30;65856;52.178;21.176;2024-03-08T00:20:13;-0.35;68.75
76897;SHT30;65856;52.178;21.176;2024-03-08T00:22:39;-0.34;68.90
76897;SHT30;65856;52.178;21.176;2024-03-08T00:25:06;-0.35;68.74
76897;SHT30;65856;52.178;21.176;2024-03-08T00:27:35;-0.39;68.49
76897;SHT30;65856;52.178;21.176;2024-03-08T00:30:02;-0.40;68.28
76897;SHT30;65856;52.178;21.176;2024-03-08T00:32:28;-0.42;68.26
76897;SHT30;65856;52.178;21.176;2024-03-08T00:34:53;-0.43;68.25
76897;SHT30;65856;52.178;21.176;2024-03-08T00:37:22;-0.45;68.12
76897;SHT30;65856;52.178;21.176;2024-03-08T00:39:48;-0.47;68.28
76897;SHT30;65856;52.178;21.176;2024-03-08T00:42:15;-0.48;68.59
76897;SHT30;65856;52.178;21.176;2024-03-08T00:44:43;-0.48;68.57
76897;SHT30;65856;52.178;21.176;2024-03-08T00:47:09;-0.53;68.22
76897;SHT30;65856;52.178;21.176;2024-03-08T00:49:35;-0.56;68.18
76897;SHT30;65856;52.178;21.176;2024-03-08T00:52:04;-0.59;68.48
76897;SHT30;65856;52.178;21.176;2024-03-08T00:54:36;-0.62;68.71
76897;SHT30;65856;52.178;21.176;2024-03-08T00:57:01;-0.64;68.97
76897;SHT30;65856;52.178;21.176;2024-03-08T00:59:28;-0.64;69.09
76897;SHT30;65856;52.178;21.176;2024-03-08T01:01:54;-0.67;69.06
76897;SHT30;65856;52.178;21.176;2024-03-08T01:04:20;-0.69;68.83
76897;SHT30;65856;52.178;21.176;2024-03-08T01:06:46;-0.73;68.66
76897;SHT30;65856;52.178;21.176;2024-03-08T01:09:12;-0.74;68.86
76897;SHT30;65856;52.178;21.176;2024-03-08T01:11:38;-0.75;68.89
76897;SHT30;65856;52.178;21.176;2024-03-08T01:14:04;-0.75;68.57
76897;SHT30;65856;52.178;21.176;2024-03-08T01:16:30;-0.75;68.55
76897;SHT30;65856;52.178;21.176;2024-03-08T01:18:58;-0.78;68.63
76897;SHT30;65856;52.178;21.176;2024-03-08T01:21:23;-0.78;68.46
76897;SHT30;65856;52.178;21.176;2024-03-08T01:23:49;-0.78;68.39
76897;SHT30;65856;52.178;21.176;2024-03-08T01:26:14;-0.79;68.43
76897;SHT30;65856;52.178;21.176;2024-03-08T01:28:40;-0.81;68.63
76897;SHT30;65856;52.178;21.176;2024-03-08T01:31:05;-0.82;68.58
76897;SHT30;65856;52.178;21.176;2024-03-08T01:33:31;-0.82;68.40
76897;SHT30;65856;52.178;21.176;2024-03-08T01:35:56;-0.85;68.61
76897;SHT30;65856;52.178;21.176;2024-03-08T01:38:22;-0.86;68.92
76897;SHT30;65856;52.178;21.176;2024-03-08T01:40:48;-0.88;69.09
76897;SHT30;65856;52.178;21.176;2024-03-08T01:43:21;-0.90;69.29
76897;SHT30;65856;52.178;21.176;2024-03-08T01:45:54;-0.94;69.20
76897;SHT30;65856;52.178;21.176;2024-03-08T01:48:23;-0.99;69.35
76897;SHT30;65856;52.178;21.176;2024-03-08T01:50:50;-1.00;69.25
76897;SHT30;65856;52.178;21.176;2024-03-08T01:53:17;-1.00;68.95
76897;SHT30;65856;52.178;21.176;2024-03-08T01:55:45;-1.00;69.09
76897;SHT30;65856;52.178;21.176;2024-03-08T01:58:12;-1.01;69.32
76897;SHT30;65856;52.178;21.176;2024-03-08T02:00:44;-1.01;69.16
76897;SHT30;65856;52.178;21.176;2024-03-08T02:03:14;-1.00;69.09
76897;SHT30;65856;52.178;21.176;2024-03-08T02:05:43;-1.01;69.22
76897;SHT30;65856;52.178;21.176;2024-03-08T02:08:08;-1.02;69.07
76897;SHT30;65856;52.178;21.176;2024-03-08T02:10:43;-1.04;68.59
76897;SHT30;65856;52.178;21.176;2024-03-08T02:13:09;-1.06;68.63
76897;SHT30;65856;52.178;21.176;2024-03-08T02:18:24;-1.07;68.82
76897;SHT30;65856;52.178;21.176;2024-03-08T02:20:53;-1.08;69.13
76897;SHT30;65856;52.178;21.176;2024-03-08T02:23:20;-1.12;69.32
76897;SHT30;65856;52.178;21.176;2024-03-08T02:25:46;-1.15;69.46
76897;SHT30;65856;52.178;21.176;2024-03-08T02:28:13;-1.17;69.57
76897;SHT30;65856;52.178;21.176;2024-03-08T02:30:39;-1.19;69.33
76897;SHT30;65856;52.178;21.176;2024-03-08T02:33:05;-1.22;69.12
76897;SHT30;65856;52.178;21.176;2024-03-08T02:35:31;-1.20;69.45
76897;SHT30;65856;52.178;21.176;2024-03-08T02:37:58;-1.21;69.60
76897;SHT30;65856;52.178;21.176;2024-03-08T02:40:28;-1.23;69.32
76897;SHT30;65856;52.178;21.176;2024-03-08T02:42:53;-1.23;68.91
76897;SHT30;65856;52.178;21.176;2024-03-08T02:45:19;-1.23;68.74
76897;SHT30;65856;52.178;21.176;2024-03-08T02:47:45;-1.24;68.61
76897;SHT30;65856;52.178;21.176;2024-03-08T02:50:11;-1.28;68.58
76897;SHT30;65856;52.178;21.176;2024-03-08T02:52:36;-1.30;68.56
76897;SHT30;65856;52.178;21.176;2024-03-08T02:55:02;-1.32;68.61
76897;SHT30;65856;52.178;21.176;2024-03-08T02:57:28;-1.34;68.91
76897;SHT30;65856;52.178;21.176;2024-03-08T02:59:54;-1.32;69.17
76897;SHT30;65856;52.178;21.176;2024-03-08T03:02:19;-1.32;69.14
76897;SHT30;65856;52.178;21.176;2024-03-08T03:04:44;-1.33;69.18
76897;SHT30;65856;52.178;21.176;2024-03-08T03:07:10;-1.34;69.24
76897;SHT30;65856;52.178;21.176;2024-03-08T03:09:36;-1.34;69.21
76897;SHT30;65856;52.178;21.176;2024-03-08T03:12:01;-1.37;69.39
76897;SHT30;65856;52.178;21.176;2024-03-08T03:14:27;-1.39;69.50
76897;SHT30;65856;52.178;21.176;2024-03-08T03:16:53;-1.39;69.42
76897;SHT30;65856;52.178;21.176;2024-03-08T03:19:19;-1.41;69.11
76897;SHT30;65856;52.178;21.176;2024-03-08T03:21:45;-1.42;68.88
76897;SHT30;65856;52.178;21.176;2024-03-08T03:24:11;-1.44;68.77
76897;SHT30;65856;52.178;21.176;2024-03-08T03:26:37;-1.46;68.68
76897;SHT30;65856;52.178;21.176;2024-03-08T03:29:06;-1.47;68.59
76897;SHT30;65856;52.178;21.176;2024-03-08T03:31:34;-1.48;68.86
76897;SHT30;65856;52.178;21.176;2024-03-08T03:34:01;-1.52;68.91
76897;SHT30;65856;52.178;21.176;2024-03-08T03:36:28;-1.53;68.72
76897;SHT30;65856;52.178;21.176;2024-03-08T03:38:55;-1.57;68.58
76897;SHT30;65856;52.178;21.176;2024-03-08T03:41:34;-1.60;68.52
76897;SHT30;65856;52.178;21.176;2024-03-08T03:44:00;-1.63;68.48
76897;SHT30;65856;52.178;21.176;2024-03-08T03:46:25;-1.65;68.40
76897;SHT30;65856;52.178;21.176;2024-03-08T03:48:52;-1.67;68.47
76897;SHT30;65856;52.178;21.176;2024-03-08T03:51:20;-1.66;68.36
76897;SHT30;65856;52.178;21.176;2024-03-08T03:53:46;-1.68;68.16
76897;SHT30;65856;52.178;21.176;2024-03-08T03:56:11;-1.71;68.32
76897;SHT30;65856;52.178;21.176;2024-03-08T03:58:37;-1.71;68.40
76897;SHT30;65856;52.178;21.176;2024-03-08T04:01:04;-1.72;68.40
76897;SHT30;65856;52.178;21.176;2024-03-08T04:03:29;-1.71;68.43
76897;SHT30;65856;52.178;21.176;2024-03-08T04:05:55;-1.71;68.44
76897;SHT30;65856;52.178;21.176;2024-03-08T04:08:20;-1.72;68.51
76897;SHT30;65856;52.178;21.176;2024-03-08T04:10:46;-1.73;68.52
76897;SHT30;65856;52.178;21.176;2024-03-08T04:13:11;-1.74;68.50
76897;SHT30;65856;52.178;21.176;2024-03-08T04:15:37;-1.73;68.46
76897;SHT30;65856;52.178;21.176;2024-03-08T04:18:03;-1.76;68.47
76897;SHT30;65856;52.178;21.176;2024-03-08T04:20:29;-1.80;68.77
76897;SHT30;65856;52.178;21.176;2024-03-08T04:22:55;-1.82;68.76
76897;SHT30;65856;52.178;21.176;2024-03-08T04:25:21;-1.83;68.44
76897;SHT30;65856;52.178;21.176;2024-03-08T04:27:46;-1.84;68.40
76897;SHT30;65856;52.178;21.176;2024-03-08T04:30:13;-1.85;68.33
76897;SHT30;65856;52.178;21.176;2024-03-08T04:32:39;-1.84;68.30
76897;SHT30;65856;52.178;21.176;2024-03-08T04:35:06;-1.86;68.35
76897;SHT30;65856;52.178;21.176;2024-03-08T04:37:33;-1.88;68.33
76897;SHT30;65856;52.178;21.176;2024-03-08T04:39:59;-1.88;68.31
76897;SHT30;65856;52.178;21.176;2024-03-08T04:42:24;-1.89;68.28
76897;SHT30;65856;52.178;21.176;2024-03-08T04:44:52;-1.92;68.37
76897;SHT30;65856;52.178;21.176;2024-03-08T04:47:18;-1.95;68.60
76897;SHT30;65856;52.178;21.176;2024-03-08T04:49:44;-2.01;68.74
76897;SHT30;65856;52.178;21.176;2024-03-08T04:52:09;-2.04;68.70
76897;SHT30;65856;52.178;21.176;2024-03-08T04:54:35;-2.05;68.49
76897;SHT30;65856;52.178;21.176;2024-03-08T04:57:00;-2.05;68.30
76897;SHT30;65856;52.178;21.176;2024-03-08T04:59:26;-2.05;68.13
76897;SHT30;65856;52.178;21.176;2024-03-08T05:01:52;-2.07;68.07
76897;SHT30;65856;52.178;21.176;2024-03-08T05:04:18;-2.08;68.38
76897;SHT30;65856;52.178;21.176;2024-03-08T05:06:43;-2.07;68.53
76897;SHT30;65856;52.178;21.176;2024-03-08T05:09:08;-2.07;68.42
76897;SHT30;65856;52.178;21.176;2024-03-08T05:11:44;-2.07;68.41
76897;SHT30;65856;52.178;21.176;2024-03-08T05:14:11;-2.06;68.50
76897;SHT30;65856;52.178;21.176;2024-03-08T05:16:47;-2.05;68.70
76897;SHT30;65856;52.178;21.176;2024-03-08T05:19:13;-2.05;68.70
76897;SHT30;65856;52.178;21.176;2024-03-08T05:21:41;-2.03;68.65
76897;SHT30;65856;52.178;21.176;2024-03-08T05:24:09;-2.04;68.60
76897;SHT30;65856;52.178;21.176;2024-03-08T05:26:35;-2.03;68.60
76897;SHT30;65856;52.178;21.176;2024-03-08T05:29:02;-2.02;68.59
76897;SHT30;65856;52.178;21.176;2024-03-08T05:31:28;-2.01;68.60
76897;SHT30;65856;52.178;21.176;2024-03-08T05:33:56;-1.98;68.66
76897;SHT30;65856;52.178;21.176;2024-03-08T05:36:21;-1.97;68.68
76897;SHT30;65856;52.178;21.176;2024-03-08T05:38:47;-1.97;68.99
76897;SHT30;65856;52.178;21.176;2024-03-08T05:41:15;-1.93;69.15
76897;SHT30;65856;52.178;21.176;2024-03-08T05:43:41;-1.91;69.12
76897;SHT30;65856;52.178;21.176;2024-03-08T05:46:07;-1.87;69.23
76897;SHT30;65856;52.178;21.176;2024-03-08T05:48:32;-1.82;69.22
76897;SHT30;65856;52.178;21.176;2024-03-08T05:50:58;-1.80;69.34
76897;SHT30;65856;52.178;21.176;2024-03-08T05:53:25;-1.77;69.68
76897;SHT30;65856;52.178;21.176;2024-03-08T05:55:51;-1.74;69.89
76897;SHT30;65856;52.178;21.176;2024-03-08T05:58:17;-1.67;69.90
76897;SHT30;65856;52.178;21.176;2024-03-08T06:00:42;-1.59;69.95
76897;SHT30;65856;52.178;21.176;2024-03-08T06:03:07;-1.47;70.13
76897;SHT30;65856;52.178;21.176;2024-03-08T06:05:33;-1.36;70.26
76897;SHT30;65856;52.178;21.176;2024-03-08T06:07:58;-1.27;70.37
76897;SHT30;65856;52.178;21.176;2024-03-08T06:10:24;-1.13;70.48
76897;SHT30;65856;52.178;21.176;2024-03-08T06:12:49;-0.99;70.60
76897;SHT30;65856;52.178;21.176;2024-03-08T06:15:16;-0.86;70.62
76897;SHT30;65856;52.178;21.176;2024-03-08T06:17:41;-0.71;70.61
76897;SHT30;65856;52.178;21.176;2024-03-08T06:20:07;-0.57;70.66
76897;SHT30;65856;52.178;21.176;2024-03-08T06:22:38;-0.42;70.65
76897;SHT30;65856;52.178;21.176;2024-03-08T06:25:07;-0.29;70.56
76897;SHT30;65856;52.178;21.176;2024-03-08T06:27:33;-0.18;70.62
76897;SHT30;65856;52.178;21.176;2024-03-08T06:29:59;-0.05;70.71
76897;SHT30;65856;52.178;21.176;2024-03-08T06:32:25;0.08;70.72
76897;SHT30;65856;52.178;21.176;2024-03-08T06:34:51;0.26;70.76
76897;SHT30;65856;52.178;21.176;2024-03-08T06:37:16;0.44;70.84
76897;SHT30;65856;52.178;21.176;2024-03-08T06:39:47;0.62;70.73
76897;SHT30;65856;52.178;21.176;2024-03-08T06:42:13;0.79;70.68
76897;SHT30;65856;52.178;21.176;2024-03-08T06:44:39;0.93;70.74
76897;SHT30;65856;52.178;21.176;2024-03-08T06:47:13;1.15;70.35
76897;SHT30;65856;52.178;21.176;2024-03-08T06:49:40;1.36;70.00
76897;SHT30;65856;52.178;21.176;2024-03-08T06:52:06;1.55;69.92
76897;SHT30;65856;52.178;21.176;2024-03-08T06:54:34;1.71;69.80
76897;SHT30;65856;52.178;21.176;2024-03-08T06:57:01;1.87;69.79
76897;SHT30;65856;52.178;21.176;2024-03-08T06:59:30;2.06;69.72
76897;SHT30;65856;52.178;21.176;2024-03-08T07:02:00;2.34;69.43
76897;SHT30;65856;52.178;21.176;2024-03-08T07:04:27;2.56;69.10
76897;SHT30;65856;52.178;21.176;2024-03-08T07:06:55;2.80;68.94
76897;SHT30;65856;52.178;21.176;2024-03-08T07:09:22;3.04;68.76
76897;SHT30;65856;52.178;21.176;2024-03-08T07:11:49;3.30;68.57
76897;SHT30;65856;52.178;21.176;2024-03-08T07:14:21;3.58;68.30
76897;SHT30;65856;52.178;21.176;2024-03-08T07:16:47;3.85;68.06
76897;SHT30;65856;52.178;21.176;2024-03-08T07:19:12;4.09;67.77
76897;SHT30;65856;52.178;21.176;2024-03-08T07:21:38;4.37;67.53
76897;SHT30;65856;52.178;21.176;2024-03-08T07:24:03;4.67;67.11
76897;SHT30;65856;52.178;21.176;2024-03-08T07:26:46;4.97;66.61
76897;SHT30;65856;52.178;21.176;2024-03-08T07:29:15;5.26;66.42
76897;SHT30;65856;52.178;21.176;2024-03-08T07:31:41;5.60;65.46
76897;SHT30;65856;52.178;21.176;2024-03-08T07:34:06;5.85;64.52
76897;SHT30;65856;52.178;21.176;2024-03-08T07:36:32;6.02;64.12
76897;SHT30;65856;52.178;21.176;2024-03-08T07:39:01;6.27;63.19
76897;SHT30;65856;52.178;21.176;2024-03-08T07:41:27;6.55;62.67
76897;SHT30;65856;52.178;21.176;2024-03-08T07:43:55;6.82;61.97
76897;SHT30;65856;52.178;21.176;2024-03-08T07:46:20;7.04;61.48
76897;SHT30;65856;52.178;21.176;2024-03-08T07:48:45;7.25;61.00
76897;SHT30;65856;52.178;21.176;2024-03-08T07:51:11;7.52;60.24
76897;SHT30;65856;52.178;21.176;2024-03-08T07:53:37;7.79;59.62
76897;SHT30;65856;52.178;21.176;2024-03-08T07:56:03;8.07;58.72
76897;SHT30;65856;52.178;21.176;2024-03-08T07:58:34;8.33;57.51
76897;SHT30;65856;52.178;21.176;2024-03-08T08:00:59;8.48;56.91
76897;SHT30;65856;52.178;21.176;2024-03-08T08:03:25;8.64;56.66
76897;SHT30;65856;52.178;21.176;2024-03-08T08:05:52;8.85;56.53
76897;SHT30;65856;52.178;21.176;2024-03-08T08:08:18;9.09;56.55
76897;SHT30;65856;52.178;21.176;2024-03-08T08:10:43;9.34;55.33
76897;SHT30;65856;52.178;21.176;2024-03-08T08:13:09;9.49;54.43
76897;SHT30;65856;52.178;21.176;2024-03-08T08:15:34;9.60;54.19
76897;SHT30;65856;52.178;21.176;2024-03-08T08:18:00;9.75;53.56
76897;SHT30;65856;52.178;21.176;2024-03-08T08:20:25;9.84;53.80
76897;SHT30;65856;52.178;21.176;2024-03-08T08:22:53;10.00;53.67
76897;SHT30;65856;52.178;21.176;2024-03-08T08:25:20;10.21;53.08
76897;SHT30;65856;52.178;21.176;2024-03-08T08:27:46;10.38;52.11
76897;SHT30;65856;52.178;21.176;2024-03-08T08:30:11;10.48;51.80
76897;SHT30;65856;52.178;21.176;2024-03-08T08:32:38;10.62;51.86
76897;SHT30;65856;52.178;21.176;2024-03-08T08:35:04;10.83;50.86
76897;SHT30;65856;52.178;21.176;2024-03-08T08:37:32;11.03;50.44
76897;SHT30;65856;52.178;21.176;2024-03-08T08:40:00;11.15;49.74
76897;SHT30;65856;52.178;21.176;2024-03-08T08:42:30;11.23;49.26
76897;SHT30;65856;52.178;21.176;2024-03-08T08:44:56;11.33;48.81
76897;SHT30;65856;52.178;21.176;2024-03-08T08:47:22;11.34;47.59
76897;SHT30;65856;52.178;21.176;2024-03-08T08:49:48;11.26;47.93
76897;SHT30;65856;52.178;21.176;2024-03-08T08:52:16;11.37;48.24
76897;SHT30;65856;52.178;21.176;2024-03-08T08:54:42;11.59;47.47
76897;SHT30;65856;52.178;21.176;2024-03-08T08:57:09;11.71;46.76
76897;SHT30;65856;52.178;21.176;2024-03-08T08:59:35;11.80;46.34
76897;SHT30;65856;52.178;21.176;2024-03-08T09:02:05;11.91;45.78
76897;SHT30;65856;52.178;21.176;2024-03-08T09:04:32;12.02;44.42
76897;SHT30;65856;52.178;21.176;2024-03-08T09:06:57;12.08;44.16
76897;SHT30;65856;52.178;21.176;2024-03-08T09:09:23;12.16;43.78
76897;SHT30;65856;52.178;21.176;2024-03-08T09:11:50;12.22;43.44
76897;SHT30;65856;52.178;21.176;2024-03-08T09:14:16;12.20;43.10
76897;SHT30;65856;52.178;21.176;2024-03-08T09:16:42;12.18;43.17
76897;SHT30;65856;52.178;21.176;2024-03-08T09:19:07;12.21;42.47
76897;SHT30;65856;52.178;21.176;2024-03-08T09:21:33;12.24;42.19
76897;SHT30;65856;52.178;21.176;2024-03-08T09:24:00;12.24;42.08
76897;SHT30;65856;52.178;21.176;2024-03-08T09:26:26;12.20;41.80
76897;SHT30;65856;52.178;21.176;2024-03-08T09:28:51;12.23;41.79
76897;SHT30;65856;52.178;21.176;2024-03-08T09:31:17;12.31;41.46
76897;SHT30;65856;52.178;21.176;2024-03-08T09:33:43;12.28;41.23
76897;SHT30;65856;52.178;21.176;2024-03-08T09:36:08;12.31;41.13
76897;SHT30;65856;52.178;21.176;2024-03-08T09:38:33;12.24;40.59
76897;SHT30;65856;52.178;21.176;2024-03-08T09:41:01;12.14;40.71
76897;SHT30;65856;52.178;21.176;2024-03-08T09:43:29;12.09;40.69
76897;SHT30;65856;52.178;21.176;2024-03-08T09:45:55;12.03;40.77
76897;SHT30;65856;52.178;21.176;2024-03-08T09:48:22;12.03;40.75
76897;SHT30;65856;52.178;21.176;2024-03-08T09:50:48;12.05;40.57
76897;SHT30;65856;52.178;21.176;2024-03-08T09:53:14;12.06;40.21
76897;SHT30;65856;52.178;21.176;2024-03-08T09:55:40;12.05;39.94
76897;SHT30;65856;52.178;21.176;2024-03-08T09:58:11;12.00;39.97
76897;SHT30;65856;52.178;21.176;2024-03-08T10:00:52;12.02;40.06
76897;SHT30;65856;52.178;21.176;2024-03-08T10:03:19;12.05;39.96
76897;SHT30;65856;52.178;21.176;2024-03-08T10:05:45;12.04;40.35
76897;SHT30;65856;52.178;21.176;2024-03-08T10:08:11;12.13;42.57
76897;SHT30;65856;52.178;21.176;2024-03-08T10:10:37;12.26;41.86
76897;SHT30;65856;52.178;21.176;2024-03-08T10:13:06;12.28;41.74
76897;SHT30;65856;52.178;21.176;2024-03-08T10:15:32;12.30;41.57
76897;SHT30;65856;52.178;21.176;2024-03-08T10:18:00;12.25;40.91
76897;SHT30;65856;52.178;21.176;2024-03-08T10:20:27;12.15;40.84
76897;SHT30;65856;52.178;21.176;2024-03-08T10:22:58;12.07;40.52
76897;SHT30;65856;52.178;21.176;2024-03-08T10:25:25;12.01;40.21
76897;SHT30;65856;52.178;21.176;2024-03-08T10:27:51;11.91;40.41
76897;SHT30;65856;52.178;21.176;2024-03-08T10:30:16;11.89;39.97
76897;SHT30;65856;52.178;21.176;2024-03-08T10:32:46;11.85;39.81
76897;SHT30;65856;52.178;21.176;2024-03-08T10:35:13;11.83;39.81
76897;SHT30;65856;52.178;21.176;2024-03-08T10:40:18;11.75;40.32
76897;SHT30;65856;52.178;21.176;2024-03-08T10:42:58;11.76;40.25
76897;SHT30;65856;52.178;21.176;2024-03-08T10:45:37;11.77;39.75
76897;SHT30;65856;52.178;21.176;2024-03-08T10:50:56;11.84;39.88
76897;SHT30;65856;52.178;21.176;2024-03-08T10:53:27;11.85;39.91
76897;SHT30;65856;52.178;21.176;2024-03-08T10:55:57;11.81;39.47
76897;SHT30;65856;52.178;21.176;2024-03-08T10:58:24;11.76;39.78
76897;SHT30;65856;52.178;21.176;2024-03-08T11:00:52;11.77;39.66
76897;SHT30;65856;52.178;21.176;2024-03-08T11:06:08;11.65;39.46
76897;SHT30;65856;52.178;21.176;2024-03-08T11:08:41;11.67;40.00
76897;SHT30;65856;52.178;21.176;2024-03-08T11:11:22;11.66;39.88
76897;SHT30;65856;52.178;21.176;2024-03-08T11:13:57;11.64;40.18
76897;SHT30;65856;52.178;21.176;2024-03-08T11:18:59;11.77;39.57
76897;SHT30;65856;52.178;21.176;2024-03-08T11:21:35;11.72;39.47
76897;SHT30;65856;52.178;21.176;2024-03-08T11:24:08;11.67;39.13
76897;SHT30;65856;52.178;21.176;2024-03-08T11:26:36;11.62;39.44
76897;SHT30;65856;52.178;21.176;2024-03-08T11:32:19;11.63;39.86
76897;SHT30;65856;52.178;21.176;2024-03-08T11:34:47;11.66;39.54
76897;SHT30;65856;52.178;21.176;2024-03-08T11:37:18;11.60;39.52
76897;SHT30;65856;52.178;21.176;2024-03-08T11:39:53;11.61;39.79
76897;SHT30;65856;52.178;21.176;2024-03-08T11:42:24;11.61;39.70
76897;SHT30;65856;52.178;21.176;2024-03-08T11:44:53;11.54;38.96
76897;SHT30;65856;52.178;21.176;2024-03-08T11:47:19;11.42;39.02
76897;SHT30;65856;52.178;21.176;2024-03-08T11:49:45;11.38;39.57
76897;SHT30;65856;52.178;21.176;2024-03-08T11:52:13;11.37;39.49
76897;SHT30;65856;52.178;21.176;2024-03-08T11:54:53;11.31;39.21
76897;SHT30;65856;52.178;21.176;2024-03-08T11:57:22;11.28;39.26
76897;SHT30;65856;52.178;21.176;2024-03-08T11:59:54;11.22;39.19
76897;SHT30;65856;52.178;21.176;2024-03-08T12:02:31;11.16;39.23
76897;SHT30;65856;52.178;21.176;2024-03-08T12:05:00;11.11;39.04
76897;SHT30;65856;52.178;21.176;2024-03-08T12:07:28;11.05;38.93
76897;SHT30;65856;52.178;21.176;2024-03-08T12:10:20;10.98;38.90
76897;SHT30;65856;52.178;21.176;2024-03-08T12:12:47;10.93;38.97
76897;SHT30;65856;52.178;21.176;2024-03-08T12:15:16;10.94;39.32
76897;SHT30;65856;52.178;21.176;2024-03-08T12:17:43;10.92;39.17
76897;SHT30;65856;52.178;21.176;2024-03-08T12:20:34;10.91;39.38
76897;SHT30;65856;52.178;21.176;2024-03-08T12:22:59;10.87;39.16
76897;SHT30;65856;52.178;21.176;2024-03-08T12:25:27;10.78;39.01
76897;SHT30;65856;52.178;21.176;2024-03-08T12:28:08;10.72;39.09
76897;SHT30;65856;52.178;21.176;2024-03-08T12:30:48;10.72;39.13
76897;SHT30;65856;52.178;21.176;2024-03-08T12:33:17;10.72;39.14
76897;SHT30;65856;52.178;21.176;2024-03-08T12:35:53;10.70;38.99
76897;SHT30;65856;52.178;21.176;2024-03-08T12:38:20;10.65;39.36
76897;SHT30;65856;52.178;21.176;2024-03-08T12:40:56;10.65;39.35
76897;SHT30;65856;52.178;21.176;2024-03-08T12:43:24;10.63;39.43
76897;SHT30;65856;52.178;21.176;2024-03-08T12:45:49;10.64;39.54
76897;SHT30;65856;52.178;21.176;2024-03-08T12:48:15;10.60;39.57
76897;SHT30;65856;52.178;21.176;2024-03-08T12:50:41;10.58;39.22
76897;SHT30;65856;52.178;21.176;2024-03-08T12:53:10;10.56;39.00
76897;SHT30;65856;52.178;21.176;2024-03-08T12:55:36;10.54;39.05
76897;SHT30;65856;52.178;21.176;2024-03-08T12:58:01;10.55;39.07
76897;SHT30;65856;52.178;21.176;2024-03-08T13:00:27;10.57;39.39
76897;SHT30;65856;52.178;21.176;2024-03-08T13:02:53;10.60;39.43
76897;SHT30;65856;52.178;21.176;2024-03-08T13:05:19;10.63;39.59
76897;SHT30;65856;52.178;21.176;2024-03-08T13:07:45;10.65;39.49
76897;SHT30;65856;52.178;21.176;2024-03-08T13:10:12;10.63;39.54
76897;SHT30;65856;52.178;21.176;2024-03-08T13:12:42;10.60;39.52
76897;SHT30;65856;52.178;21.176;2024-03-08T13:15:08;10.60;39.42
76897;SHT30;65856;52.178;21.176;2024-03-08T13:17:37;10.56;39.06
76897;SHT30;65856;52.178;21.176;2024-03-08T13:20:05;10.54;39.60
76897;SHT30;65856;52.178;21.176;2024-03-08T13:22:32;10.57;39.46
76897;SHT30;65856;52.178;21.176;2024-03-08T13:24:58;10.57;39.04
76897;SHT30;65856;52.178;21.176;2024-03-08T13:27:26;10.56;38.92
76897;SHT30;65856;52.178;21.176;2024-03-08T13:29:54;10.55;38.97
76897;SHT30;65856;52.178;21.176;2024-03-08T13:32:20;10.56;39.39
76897;SHT30;65856;52.178;21.176;2024-03-08T13:34:49;10.56;39.63
76897;SHT30;65856;52.178;21.176;2024-03-08T13:37:16;10.58;39.31
76897;SHT30;65856;52.178;21.176;2024-03-08T13:39:42;10.58;38.98
76897;SHT30;65856;52.178;21.176;2024-03-08T13:42:15;10.56;39.20
76897;SHT30;65856;52.178;21.176;2024-03-08T13:44:44;10.57;39.66
76897;SHT30;65856;52.178;21.176;2024-03-08T13:47:12;10.58;39.62
76897;SHT30;65856;52.178;21.176;2024-03-08T13:49:39;10.56;39.57
76897;SHT30;65856;52.178;21.176;2024-03-08T13:52:04;10.58;39.39
76897;SHT30;65856;52.178;21.176;2024-03-08T13:54:31;10.55;38.60
76897;SHT30;65856;52.178;21.176;2024-03-08T13:56:56;10.50;38.96
76897;SHT30;65856;52.178;21.176;2024-03-08T13:59:23;10.51;39.40
76897;SHT30;65856;52.178;21.176;2024-03-08T14:01:49;10.49;38.98
76897;SHT30;65856;52.178;21.176;2024-03-08T14:04:15;10.49;39.14
76897;SHT30;65856;52.178;21.176;2024-03-08T14:06:44;10.48;38.80
76897;SHT30;65856;52.178;21.176;2024-03-08T14:09:10;10.44;38.87
76897;SHT30;65856;52.178;21.176;2024-03-08T14:11:42;10.42;39.21
76897;SHT30;65856;52.178;21.176;2024-03-08T14:14:09;10.43;39.36
76897;SHT30;65856;52.178;21.176;2024-03-08T14:16:38;10.44;39.33
76897;SHT30;65856;52.178;21.176;2024-03-08T14:19:04;10.44;39.18
76897;SHT30;65856;52.178;21.176;2024-03-08T14:21:31;10.45;39.32
76897;SHT30;65856;52.178;21.176;2024-03-08T14:23:57;10.45;39.47
76897;SHT30;65856;52.178;21.176;2024-03-08T14:26:22;10.46;39.56
76897;SHT30;65856;52.178;21.176;2024-03-08T14:28:48;10.47;39.49
76897;SHT30;65856;52.178;21.176;2024-03-08T14:31:16;10.45;39.15
76897;SHT30;65856;52.178;21.176;2024-03-08T14:33:44;10.41;38.97
76897;SHT30;65856;52.178;21.176;2024-03-08T14:36:13;10.37;39.40
76897;SHT30;65856;52.178;21.176;2024-03-08T14:38:41;10.36;39.20
76897;SHT30;65856;52.178;21.176;2024-03-08T14:41:07;10.35;38.92
76897;SHT30;65856;52.178;21.176;2024-03-08T14:43:32;10.33;38.99
76897;SHT30;65856;52.178;21.176;2024-03-08T14:45:57;10.32;38.99
76897;SHT30;65856;52.178;21.176;2024-03-08T14:48:23;10.32;39.00
76897;SHT30;65856;52.178;21.176;2024-03-08T14:50:48;10.32;38.74
76897;SHT30;65856;52.178;21.176;2024-03-08T14:53:14;10.32;38.70
76897;SHT30;65856;52.178;21.176;2024-03-08T14:55:40;10.33;38.86
76897;SHT30;65856;52.178;21.176;2024-03-08T14:58:06;10.30;38.31
76897;SHT30;65856;52.178;21.176;2024-03-08T15:00:31;10.29;38.44
76897;SHT30;65856;52.178;21.176;2024-03-08T15:03:00;10.27;38.63
76897;SHT30;65856;52.178;21.176;2024-03-08T15:05:35;10.25;38.89
76897;SHT30;65856;52.178;21.176;2024-03-08T15:08:03;10.20;38.71
76897;SHT30;65856;52.178;21.176;2024-03-08T15:10:34;10.20;38.63
76897;SHT30;65856;52.178;21.176;2024-03-08T15:13:00;10.17;38.50
76897;SHT30;65856;52.178;21.176;2024-03-08T15:15:27;10.16;38.31
76897;SHT30;65856;52.178;21.176;2024-03-08T15:17:55;10.12;38.32
76897;SHT30;65856;52.178;21.176;2024-03-08T15:20:23;10.10;38.82
76897;SHT30;65856;52.178;21.176;2024-03-08T15:22:54;10.08;38.66
76897;SHT30;65856;52.178;21.176;2024-03-08T15:25:23;10.06;39.04
76897;SHT30;65856;52.178;21.176;2024-03-08T15:27:54;10.02;39.32
76897;SHT30;65856;52.178;21.176;2024-03-08T15:30:20;9.99;39.27
76897;SHT30;65856;52.178;21.176;2024-03-08T15:32:56;9.97;39.53
76897;SHT30;65856;52.178;21.176;2024-03-08T15:35:22;9.95;39.94